Airport Code: KEST // Unicom: 122.80 // Phone: 712-362-2761

Estherville Aviation

Welcome to Estherville Aviation. We are a small, family owned and operated fixed base operation (FBO) located at the Estherville, Iowa airport in Northwest Iowa.  The Estherville airport, KEST, is located 3 miles east of Estherville on highway 9, 15 miles east of the Iowa Great Lakes Region and Okoboji.

AirNav Information

Click the button above to visit Estherville Aviation’s AirNav profile.

Estherville Weather

ASOS

Frequency
Telephone

121.425
712-362-7250

Available data for KEST from the past 6 hours
ESTHERVILLE, IA
Metar
KEST 231252Z AUTO 00000KT 10SM CLR 13/12 A3014 RMK AO2 SLP207 T01280117 $

12:52 UTC

Wind: 0° 0kt

Visibility: 10 SM

Sky:

Temp: 13 deg C / 55.4 deg F

Dewpoint: 12 deg C / 53.6 deg F

Pressure: 30.14 inHg

Estherville Fuel Prices

Fuel Type  Self-Serve Price
 JET A w/ Add

(30 Aug 2016)

 $3.50
100LL

(14 July 2017)

$4.15 Credit
$4.00 Cash

Aeronautical Charts

Authorized Service Centers

Estherville Aviation is an authorized service center for Cirrus, Rotax, Remos and Flight Design brands.